Pagrindinis puslapis
METAR-TAF:

METAR-TAF

Oro uostai :

Briuselio oro uostas

Briuselis, Belgija

platuma: 50-54N, ilguma: 004-32E, Aukštis: 55 m

Dabartinis oras

Ataskaita buvo paskelbta 26 minutes, ne 17:50 UTC
Vėjas 3 kt iš Pietų/Pietvakarių
Temperatūra 14°C
Drėgmė 88%
Slėgis 1012 hPa
Matomumas 10 km arba daugiau
Mažai debesys ne aukštis 2000 ft

METAR: EBBR 221750Z 21003KT 9999 FEW020 14/12 Q1012 NOSIG

Laikas: 20:16 (18:16 UTC)

Prognozė

Ataskaita buvo paskelbta 1 valandą ir 6 minutes, ne 17:10 UTC
Prognozė galioja nuo 22 metu 18 UTC su 23 metu 24 UTC
Vėjas 5 kt iš Pietų/Pietvakarių
Matomumas 10 km arba daugiau
Mažai debesys ne aukštis 2000 ft
Tikimybė 40% :
Laikinai
nuo 22 metu 23 UTC su 23 metu 09 UTC
Matomumas: 3000 m
Su prošvaistėmis ne aukštis 400 ft
rūkana
Tikimybė 30% :
Laikinai
nuo 23 metu 00 UTC su 23 metu 08 UTC
Matomumas: 1200 m
Rūkas lopais

TAF: EBBR 221710Z 2218/2324 20005KT 9999 FEW020 PROB40 TEMPO 2223/2309 3000 BR BKN004 PROB30 TEMPO 2300/2308 1200 BCFG

Orai ataskaitas ir orų prognozės (METAR, TAF).

turimą stotys yra geltonos ir raudonos taškus žemėlapyje.

Perkelti pele per norėdami pamatyti stoties vardą.

Tada spustelėkite, norėdami matyti oro stebėjimo ir prognozės.

Norėdami pakeisti žemėlapį: spustelėkite ant žalios mygtukų su juodo kryžiaus žemyn,; žalią mygtuką su brūkšneliu, jei norite nutolinti; arba žalių rodyklių gretimoms žemėlapius.


METAR-TAF: